createdAt,value
2023-02-08T00:00:01.493Z,3.3
2023-02-08T00:05:00.421Z,3.3
2023-02-08T00:10:01.274Z,3.3
2023-02-08T00:15:01.360Z,3.2
2023-02-08T00:20:01.380Z,3.2
2023-02-08T00:25:00.553Z,3.2
2023-02-08T00:30:01.313Z,3.2
2023-02-08T00:35:00.470Z,3.2
2023-02-08T00:40:01.346Z,3.2
2023-02-08T00:45:01.370Z,3.2
2023-02-08T00:50:01.319Z,3.2
2023-02-08T00:55:00.488Z,3.2
2023-02-08T01:00:01.341Z,3.2
2023-02-08T01:05:00.482Z,3.2
2023-02-08T01:10:01.329Z,3.2
2023-02-08T01:15:01.285Z,3.2
2023-02-08T01:20:01.366Z,3.2
2023-02-08T01:25:00.530Z,3.2
2023-02-08T01:30:01.307Z,3.2
2023-02-08T01:35:00.442Z,3.2
2023-02-08T01:40:01.290Z,3.2
2023-02-08T01:45:01.318Z,3.2
2023-02-08T01:50:01.338Z,3.2
2023-02-08T01:55:00.538Z,3.2
2023-02-08T02:00:01.369Z,3.2
2023-02-08T02:05:00.441Z,3.2
2023-02-08T02:10:01.304Z,3.2
2023-02-08T02:15:01.345Z,3.2
2023-02-08T02:20:01.347Z,3.2
2023-02-08T02:25:00.448Z,3.2
2023-02-08T02:30:01.307Z,3.2
2023-02-08T02:35:00.437Z,3.2
2023-02-08T02:40:01.384Z,3.2
2023-02-08T02:45:01.302Z,3.2
2023-02-08T02:50:01.323Z,3.2
2023-02-08T02:55:00.443Z,3.2
2023-02-08T03:00:01.414Z,3.2
2023-02-08T03:05:00.583Z,3.2
2023-02-08T03:10:01.363Z,3.2
2023-02-08T03:15:01.371Z,3.2
2023-02-08T03:20:01.312Z,3.2
2023-02-08T03:25:00.531Z,3.2
2023-02-08T03:30:01.336Z,3.2
2023-02-08T03:35:00.451Z,3.2
2023-02-08T03:40:01.370Z,3.1
2023-02-08T03:45:01.358Z,3.1
2023-02-08T03:50:01.340Z,3.1
2023-02-08T03:55:00.517Z,3.1
2023-02-08T04:00:01.378Z,3.1
2023-02-08T04:05:00.436Z,3.1
2023-02-08T04:10:01.331Z,3.1
2023-02-08T04:15:01.363Z,3.1
2023-02-08T04:20:01.339Z,3.1
2023-02-08T04:25:00.496Z,3.1
2023-02-08T04:30:01.327Z,3.1
2023-02-08T04:35:00.449Z,3.1
2023-02-08T04:40:01.290Z,3.1
2023-02-08T04:45:01.351Z,3.1
2023-02-08T04:50:01.320Z,3.1
2023-02-08T04:55:00.453Z,3.1
2023-02-08T05:00:01.325Z,3.1
2023-02-08T05:05:00.457Z,3.1
2023-02-08T05:10:01.327Z,3.2
2023-02-08T05:15:01.442Z,3.2
2023-02-08T05:20:01.281Z,3.2
2023-02-08T05:25:00.455Z,3.3
2023-02-08T05:30:01.323Z,3.3
2023-02-08T05:35:00.513Z,3.2
2023-02-08T05:40:01.373Z,3.1
2023-02-08T05:45:01.430Z,3.1
2023-02-08T05:50:01.289Z,3.1
2023-02-08T05:55:00.398Z,3.1
2023-02-08T06:00:01.333Z,3.1
2023-02-08T06:05:00.423Z,3.1
2023-02-08T06:10:01.311Z,3.1
2023-02-08T06:15:01.361Z,3.1
2023-02-08T06:20:01.324Z,3.1
2023-02-08T06:25:00.484Z,3.1
2023-02-08T06:30:01.349Z,3.1
2023-02-08T06:35:00.412Z,3.1
2023-02-08T06:40:01.309Z,3.1
2023-02-08T06:45:01.338Z,3.1
2023-02-08T06:50:01.294Z,3.1
2023-02-08T06:55:00.441Z,3.1
2023-02-08T07:00:01.392Z,3.1
2023-02-08T07:05:00.549Z,3.1
2023-02-08T07:10:01.239Z,3.1
2023-02-08T07:15:01.446Z,3
2023-02-08T07:20:01.241Z,3
2023-02-08T07:25:00.462Z,3.1
2023-02-08T07:30:01.433Z,3
2023-02-08T07:35:00.435Z,3
2023-02-08T07:40:01.424Z,3
2023-02-08T07:45:01.380Z,3.1
2023-02-08T07:50:01.285Z,3
2023-02-08T07:55:00.457Z,3
2023-02-08T08:00:01.591Z,3
2023-02-08T08:05:00.634Z,3
2023-02-08T08:10:01.256Z,3
2023-02-08T08:15:01.396Z,3
2023-02-08T08:20:01.298Z,3
2023-02-08T08:25:00.449Z,3.1
2023-02-08T08:30:01.342Z,3.1
2023-02-08T08:35:00.508Z,3.1
2023-02-08T08:40:01.355Z,3.1
2023-02-08T08:45:01.338Z,3.1
2023-02-08T08:50:01.294Z,3.1
2023-02-08T08:55:00.442Z,3.1
2023-02-08T09:00:01.322Z,3.1
2023-02-08T09:05:00.458Z,3.1
2023-02-08T09:10:01.298Z,3.1
2023-02-08T09:15:01.294Z,3.1
2023-02-08T09:20:02.817Z,3.1
2023-02-08T09:25:00.519Z,3.1
2023-02-08T09:30:01.306Z,3.2
2023-02-08T09:35:00.512Z,3.2
2023-02-08T09:40:01.396Z,3.2
2023-02-08T09:45:01.290Z,3.2
2023-02-08T09:50:01.366Z,3.2
2023-02-08T09:55:00.527Z,3.2
2023-02-08T10:00:01.440Z,3.2
2023-02-08T10:05:00.473Z,3.2
2023-02-08T10:10:01.245Z,3.2
2023-02-08T10:15:01.358Z,3.3
2023-02-08T10:25:00.473Z,3.3
2023-02-08T10:30:01.383Z,3.3
2023-02-08T10:35:00.550Z,3.3
2023-02-08T10:40:01.241Z,3.3
2023-02-08T10:45:01.352Z,3.3
2023-02-08T10:50:01.347Z,3.2
2023-02-08T10:55:00.477Z,3.3
2023-02-08T11:00:01.304Z,3.3
2023-02-08T11:05:00.484Z,3.3
2023-02-08T11:10:01.316Z,3.3
2023-02-08T11:15:01.335Z,3.3
2023-02-08T11:20:01.301Z,3.3
2023-02-08T11:25:00.536Z,3.3
2023-02-08T11:30:01.288Z,3.3
2023-02-08T11:35:00.444Z,3.3
2023-02-08T11:40:01.341Z,3.3
2023-02-08T11:45:01.291Z,3.3
2023-02-08T11:50:01.261Z,3.3
2023-02-08T11:55:00.466Z,3.3
2023-02-08T12:00:01.376Z,3.3
2023-02-08T12:05:00.450Z,3.3
2023-02-08T12:10:01.237Z,3.2
2023-02-08T12:15:01.329Z,3.3
2023-02-08T12:20:01.285Z,3.3
2023-02-08T12:25:00.515Z,3.3
2023-02-08T12:30:01.310Z,3.3
2023-02-08T12:35:00.448Z,3.3
2023-02-08T12:40:01.428Z,3.3
2023-02-08T12:45:01.312Z,3.3
2023-02-08T12:50:01.188Z,3.3
2023-02-08T12:55:00.550Z,3.3
2023-02-08T13:00:01.283Z,3.3
2023-02-08T13:05:00.557Z,3.3
2023-02-08T13:10:01.271Z,3.3
2023-02-08T13:15:02.897Z,3.3
2023-02-08T13:20:01.361Z,3.4
2023-02-08T13:25:07.307Z,3.6
2023-02-08T13:30:01.497Z,3.6
2023-02-08T13:35:00.524Z,3.6
2023-02-08T13:40:01.389Z,3.6
2023-02-08T13:45:01.420Z,3.6
2023-02-08T13:50:01.242Z,3.6
2023-02-08T13:55:00.462Z,3.6
2023-02-08T14:00:01.492Z,3.6
2023-02-08T14:05:00.449Z,3.6
2023-02-08T14:10:01.348Z,3.6
2023-02-08T14:15:01.315Z,3.6
2023-02-08T14:20:01.337Z,3.7
2023-02-08T14:25:00.463Z,3.6
2023-02-08T14:30:01.283Z,3.7
2023-02-08T14:35:00.433Z,3.6
2023-02-08T14:40:01.266Z,3.5
2023-02-08T14:45:01.354Z,3.5
2023-02-08T14:50:01.239Z,3.4
2023-02-08T14:55:00.554Z,3.5
2023-02-08T15:00:01.444Z,3.5
2023-02-08T15:05:00.459Z,3.5
2023-02-08T15:10:01.270Z,3.5
2023-02-08T15:15:01.364Z,3.5
2023-02-08T15:20:01.291Z,3.5
2023-02-08T15:25:00.472Z,3.5
2023-02-08T15:30:01.357Z,3.5
2023-02-08T15:35:00.490Z,3.4
2023-02-08T15:40:01.251Z,3.4
2023-02-08T15:45:01.273Z,3.3
2023-02-08T15:50:01.253Z,3.3
2023-02-08T15:55:00.398Z,3.3
2023-02-08T16:00:01.278Z,3.3
2023-02-08T16:05:00.591Z,3.2
2023-02-08T16:10:01.196Z,3.2
2023-02-08T16:15:01.308Z,3.2
2023-02-08T16:20:01.948Z,3.2
2023-02-08T16:25:00.402Z,3.2
2023-02-08T16:30:01.471Z,3.2
2023-02-08T16:35:00.481Z,3.2
2023-02-08T16:40:01.365Z,3.2
2023-02-08T16:45:01.385Z,3.2
2023-02-08T16:50:01.258Z,3.2
2023-02-08T16:55:00.747Z,3.1
2023-02-08T17:00:02.984Z,3.1
2023-02-08T17:05:00.457Z,3.1
2023-02-08T17:10:01.363Z,3.1
2023-02-08T17:15:01.269Z,3.1
2023-02-08T17:20:01.224Z,3.1
2023-02-08T17:25:00.487Z,3
2023-02-08T17:30:01.301Z,3
2023-02-08T17:35:00.482Z,3
2023-02-08T17:40:01.268Z,3
2023-02-08T17:45:01.335Z,3
2023-02-08T17:50:01.349Z,3
2023-02-08T17:55:00.438Z,3
2023-02-08T18:00:01.317Z,3
2023-02-08T18:05:00.417Z,3
2023-02-08T18:10:01.224Z,3
2023-02-08T18:15:01.352Z,2.9
2023-02-08T18:20:01.248Z,3
2023-02-08T18:25:00.453Z,2.9
2023-02-08T18:30:01.340Z,2.9
2023-02-08T18:35:03.199Z,2.9
2023-02-08T18:40:01.242Z,2.9
2023-02-08T18:45:01.260Z,2.9
2023-02-08T18:50:01.224Z,2.9
2023-02-08T18:55:00.553Z,2.9
2023-02-08T19:00:01.298Z,2.9
2023-02-08T19:05:00.398Z,2.9
2023-02-08T19:10:01.242Z,2.9
2023-02-08T19:15:01.271Z,2.9
2023-02-08T19:20:01.251Z,2.8
2023-02-08T19:25:00.401Z,2.8
2023-02-08T19:30:01.323Z,2.8
2023-02-08T19:35:00.422Z,2.8
2023-02-08T19:40:01.190Z,2.9
2023-02-08T19:45:01.249Z,2.9
2023-02-08T19:50:01.231Z,2.8
2023-02-08T19:55:00.429Z,2.8
2023-02-08T20:00:02.806Z,2.8
2023-02-08T20:05:00.485Z,2.8
2023-02-08T20:10:01.322Z,2.8
2023-02-08T20:15:01.259Z,2.8
2023-02-08T20:20:01.280Z,2.8
2023-02-08T20:25:00.435Z,2.8
2023-02-08T20:30:01.224Z,2.8
2023-02-08T20:35:00.447Z,2.7
2023-02-08T20:40:01.250Z,2.7
2023-02-08T20:45:01.389Z,2.7
2023-02-08T20:50:05.176Z,2.8
2023-02-08T20:55:00.438Z,2.8
2023-02-08T21:00:01.425Z,2.7
2023-02-08T21:05:00.478Z,2.7
2023-02-08T21:10:01.249Z,2.7
2023-02-08T21:15:01.300Z,2.7
2023-02-08T21:20:01.250Z,2.7
2023-02-08T21:25:00.465Z,2.7
2023-02-08T21:30:01.228Z,2.7
2023-02-08T21:35:00.454Z,2.7
2023-02-08T21:40:01.266Z,2.7
2023-02-08T21:45:01.284Z,2.7
2023-02-08T21:50:01.331Z,2.6
2023-02-08T21:55:00.425Z,2.6
2023-02-08T22:00:01.418Z,2.7
2023-02-08T22:05:00.464Z,2.7
2023-02-08T22:10:01.315Z,2.6
2023-02-08T22:15:01.332Z,2.6
2023-02-08T22:20:01.367Z,2.6
2023-02-08T22:25:00.442Z,2.6
2023-02-08T22:30:01.399Z,2.6
2023-02-08T22:35:00.436Z,2.6
2023-02-08T22:40:01.244Z,2.6
2023-02-08T22:45:01.328Z,2.6
2023-02-08T22:50:01.288Z,2.6
2023-02-08T22:55:00.413Z,2.6
2023-02-08T23:00:01.352Z,2.6
2023-02-08T23:05:00.512Z,2.6
2023-02-08T23:10:01.199Z,2.6
2023-02-08T23:15:01.316Z,2.6
2023-02-08T23:20:01.233Z,2.6
2023-02-08T23:25:00.519Z,2.5
2023-02-08T23:30:01.284Z,2.5
2023-02-08T23:35:00.449Z,2.5
2023-02-08T23:40:01.275Z,2.5
2023-02-08T23:45:01.384Z,2.5
2023-02-08T23:50:01.326Z,2.5
2023-02-08T23:55:00.404Z,2.5
